Time;durP1;ratioP1;P1;durP2;ratioP2;P2;SDS_P1;SDS_P2;PMS_P1;PMS_P2;Temp;Humidity;BMP_temperature;BMP_pressure;BME280_temperature;BME280_humidity;BME280_pressure;Samples;Min_cycle;Max_cycle;Signal;HPM_P1;HPM_P2
2022/01/28 00:00:12;;;;;;;;;;;19.40;38.70;;;;;;5087195;28;19920;-65
2022/01/28 00:02:50;;;;;;;;;;;19.40;38.70;;;;;;5094271;28;19908;-64
2022/01/28 00:05:21;;;;;;;;;;;19.30;38.70;;;;;;5094266;28;19930;-64
2022/01/28 00:07:47;;;;;;;;;;;19.40;38.70;;;;;;5093824;28;20022;-64
2022/01/28 00:10:13;;;;;;;;;;;19.30;38.70;;;;;;5093744;28;20351;-65
2022/01/28 00:15:36;;;;;;;;;;;19.30;38.70;;;;;;5037468;28;19920;-64
2022/01/28 00:18:28;;;;;;;;;;;19.30;38.70;;;;;;5075584;28;19919;-64
2022/01/28 00:39:25;;;;;;;;;;;19.30;38.70;;;;;;5093406;28;19909;-65
2022/01/28 00:41:51;;;;;;;;;;;19.30;38.70;;;;;;5093323;28;19908;-65
2022/01/28 00:44:16;;;;;;;;;;;19.30;38.70;;;;;;5075247;28;19915;-64
2022/01/28 00:46:42;;;;;;;;;;;19.20;38.70;;;;;;5093271;28;19916;-64
2022/01/28 00:49:07;;;;;;;;;;;19.20;38.70;;;;;;5093411;28;20303;-64
2022/01/28 00:51:32;;;;;;;;;;;19.30;38.70;;;;;;5093340;28;19915;-64
2022/01/28 00:53:58;;;;;;;;;;;19.20;38.70;;;;;;5096878;28;19908;-64
2022/01/28 00:56:23;;;;;;;;;;;19.30;38.70;;;;;;5097404;28;20282;-64
2022/01/28 00:58:49;;;;;;;;;;;19.20;38.70;;;;;;5097350;28;20369;-65
2022/01/28 01:01:14;;;;;;;;;;;19.20;38.70;;;;;;5097391;28;20317;-64
2022/01/28 01:03:40;;;;;;;;;;;19.30;38.70;;;;;;5097579;28;19915;-65
2022/01/28 01:06:05;;;;;;;;;;;19.20;38.60;;;;;;5097660;28;20301;-64
2022/01/28 01:08:31;;;;;;;;;;;19.20;38.70;;;;;;5097291;28;19930;-64
2022/01/28 01:10:56;;;;;;;;;;;19.20;38.70;;;;;;5097188;28;19908;-64
2022/01/28 01:13:22;;;;;;;;;;;19.20;38.60;;;;;;5097343;28;20005;-65
2022/01/28 01:15:52;;;;;;;;;;;19.20;38.70;;;;;;5097371;28;19912;-64
2022/01/28 01:18:31;;;;;;;;;;;19.20;38.70;;;;;;5097078;28;19912;-64
2022/01/28 01:23:32;;;;;;;;;;;19.20;38.60;;;;;;5096984;28;20352;-64
2022/01/28 01:26:08;;;;;;;;;;;19.20;38.60;;;;;;5096642;28;19908;-64
2022/01/28 01:28:37;;;;;;;;;;;19.20;38.70;;;;;;5097081;28;19920;-64
2022/01/28 01:31:04;;;;;;;;;;;19.20;38.60;;;;;;5096587;28;20375;-64
2022/01/28 01:33:33;;;;;;;;;;;19.10;38.60;;;;;;5096633;28;20003;-64
2022/01/28 01:35:59;;;;;;;;;;;19.20;38.60;;;;;;5096536;28;19908;-63
2022/01/28 01:38:27;;;;;;;;;;;19.20;38.70;;;;;;5096502;28;19916;-63
2022/01/28 01:40:57;;;;;;;;;;;19.20;38.60;;;;;;5096559;28;19912;-63
2022/01/28 01:53:51;;;;;;;;;;;19.10;38.60;;;;;;5096369;28;19931;-63
2022/01/28 01:56:18;;;;;;;;;;;19.20;38.60;;;;;;5096294;28;20344;-63
2022/01/28 01:58:43;;;;;;;;;;;19.10;38.60;;;;;;5095923;28;19942;-63
2022/01/28 02:01:09;;;;;;;;;;;19.10;38.60;;;;;;5096200;28;19931;-64
2022/01/28 02:03:34;;;;;;;;;;;19.10;38.60;;;;;;5096056;28;19908;-64
2022/01/28 02:06:00;;;;;;;;;;;19.10;38.60;;;;;;5077940;28;19908;-63
2022/01/28 02:08:26;;;;;;;;;;;19.10;38.60;;;;;;5096217;28;19957;-64
2022/01/28 02:10:56;;;;;;;;;;;19.10;38.60;;;;;;5096000;28;19953;-64
2022/01/28 02:13:22;;;;;;;;;;;19.10;38.60;;;;;;5096138;28;20011;-63
2022/01/28 02:15:48;;;;;;;;;;;19.20;38.60;;;;;;5096182;28;19981;-63
2022/01/28 02:18:13;;;;;;;;;;;19.10;38.60;;;;;;5077664;28;19908;-63
2022/01/28 02:20:42;;;;;;;;;;;19.10;38.60;;;;;;5095815;28;19908;-63
2022/01/28 02:23:08;;;;;;;;;;;19.10;38.60;;;;;;5095783;28;20290;-64
2022/01/28 02:25:34;;;;;;;;;;;19.10;38.60;;;;;;5095746;28;20006;-64
2022/01/28 02:28:01;;;;;;;;;;;19.10;38.50;;;;;;5095663;28;19924;-63
2022/01/28 02:30:26;;;;;;;;;;;19.10;38.50;;;;;;5095664;28;19939;-63
2022/01/28 02:32:57;;;;;;;;;;;19.10;38.60;;;;;;5095643;28;20379;-64
2022/01/28 02:35:23;;;;;;;;;;;19.10;38.50;;;;;;5077374;28;20378;-63
2022/01/28 02:37:48;;;;;;;;;;;19.10;38.50;;;;;;5095575;28;19908;-63
2022/01/28 02:40:14;;;;;;;;;;;19.10;38.50;;;;;;5095471;28;19908;-63
2022/01/28 02:42:51;;;;;;;;;;;19.10;38.50;;;;;;5095310;28;20360;-63
2022/01/28 02:45:26;;;;;;;;;;;19.10;38.60;;;;;;5095442;28;19912;-65
2022/01/28 02:47:56;;;;;;;;;;;19.10;38.60;;;;;;5095291;28;20021;-63
2022/01/28 02:50:23;;;;;;;;;;;19.10;38.60;;;;;;5095125;28;19981;-63
2022/01/28 02:53:02;;;;;;;;;;;19.10;38.60;;;;;;5095075;28;20348;-62
2022/01/28 02:55:29;;;;;;;;;;;19.00;38.50;;;;;;5095169;28;19954;-63
2022/01/28 02:58:04;;;;;;;;;;;19.10;38.60;;;;;;5095140;28;19952;-63
2022/01/28 03:00:29;;;;;;;;;;;19.00;38.50;;;;;;5094935;28;20356;-64
2022/01/28 03:02:55;;;;;;;;;;;19.10;38.50;;;;;;5094980;28;19951;-64
2022/01/28 03:05:31;;;;;;;;;;;19.00;38.50;;;;;;5095166;28;19908;-62
2022/01/28 03:07:58;;;;;;;;;;;19.00;38.50;;;;;;5094794;28;20023;-63
2022/01/28 03:10:28;;;;;;;;;;;19.00;38.50;;;;;;5094668;28;20387;-62
2022/01/28 03:13:16;;;;;;;;;;;19.00;38.60;;;;;;5094959;28;19916;-63
2022/01/28 03:15:45;;;;;;;;;;;19.00;38.50;;;;;;5094375;28;19918;-63
2022/01/28 03:18:18;;;;;;;;;;;19.00;38.50;;;;;;5076598;28;19966;-63
2022/01/28 03:20:57;;;;;;;;;;;19.10;38.50;;;;;;5095043;28;19927;-62
2022/01/28 03:23:23;;;;;;;;;;;19.00;38.60;;;;;;5094733;28;20398;-63
2022/01/28 03:25:49;;;;;;;;;;;19.00;38.50;;;;;;5094428;28;19951;-63
2022/01/28 03:28:18;;;;;;;;;;;19.00;38.50;;;;;;5094420;28;20316;-62
2022/01/28 03:30:44;;;;;;;;;;;19.00;38.50;;;;;;5094380;28;19908;-62
2022/01/28 03:33:09;;;;;;;;;;;19.00;38.50;;;;;;5094539;28;20416;-63
2022/01/28 03:35:35;;;;;;;;;;;19.00;38.50;;;;;;5094437;28;19908;-63
2022/01/28 03:38:03;;;;;;;;;;;19.00;38.50;;;;;;5094249;28;19994;-63
2022/01/28 03:40:35;;;;;;;;;;;19.00;38.50;;;;;;5094246;28;20061;-63
2022/01/28 03:43:01;;;;;;;;;;;19.00;38.50;;;;;;5094063;28;20276;-63
2022/01/28 03:45:26;;;;;;;;;;;19.00;38.50;;;;;;5094251;28;19915;-63
2022/01/28 03:47:52;;;;;;;;;;;19.00;38.50;;;;;;5093978;28;19935;-62
2022/01/28 03:50:17;;;;;;;;;;;19.00;38.50;;;;;;5094051;28;20458;-63
2022/01/28 03:52:43;;;;;;;;;;;19.00;38.50;;;;;;5075710;28;19908;-63
2022/01/28 03:55:08;;;;;;;;;;;19.00;38.50;;;;;;5094011;28;19908;-62
2022/01/28 03:57:34;;;;;;;;;;;19.00;38.50;;;;;;5093869;28;19912;-63
2022/01/28 03:59:59;;;;;;;;;;;19.00;38.50;;;;;;5075494;28;19928;-62
2022/01/28 04:02:29;;;;;;;;;;;19.00;38.50;;;;;;5093865;28;20405;-62
2022/01/28 04:05:46;;;;;;;;;;;19.00;38.50;;;;;;5093811;28;19908;-63
2022/01/28 04:13:10;;;;;;;;;;;19.00;38.40;;;;;;5093750;28;19918;-63
2022/01/28 04:16:15;;;;;;;;;;;19.00;38.50;;;;;;5093908;28;20317;-63
2022/01/28 04:18:33;;;;;;;;;;;19.00;38.50;;;;;;5092879;28;19912;-63
2022/01/28 04:20:58;;;;;;;;;;;19.00;38.50;;;;;;5093587;28;19908;-63
2022/01/28 04:23:24;;;;;;;;;;;19.00;38.40;;;;;;5093717;28;19908;-62
2022/01/28 04:25:49;;;;;;;;;;;19.00;38.50;;;;;;5093437;28;20390;-63
2022/01/28 04:28:15;;;;;;;;;;;19.00;38.40;;;;;;5092555;28;19912;-63
2022/01/28 04:30:40;;;;;;;;;;;19.00;38.40;;;;;;5093509;28;19915;-63
2022/01/28 04:33:06;;;;;;;;;;;19.00;38.40;;;;;;5093374;28;19908;-63
2022/01/28 04:35:31;;;;;;;;;;;19.00;38.40;;;;;;5093366;28;20455;-62
2022/01/28 04:38:22;;;;;;;;;;;19.00;38.40;;;;;;5093413;28;19915;-63
2022/01/28 04:41:09;;;;;;;;;;;19.00;38.40;;;;;;5092497;28;20405;-63
2022/01/28 04:43:40;;;;;;;;;;;19.00;38.40;;;;;;5092749;28;19908;-65
2022/01/28 04:46:16;;;;;;;;;;;19.00;38.30;;;;;;5093450;28;19958;-64
2022/01/28 04:48:59;;;;;;;;;;;19.00;38.40;;;;;;5093450;28;19912;-65
2022/01/28 04:51:48;;;;;;;;;;;19.00;38.30;;;;;;5093449;28;20002;-64
2022/01/28 05:00:27;;;;;;;;;;;19.00;38.30;;;;;;4972002;28;20030;-64
2022/01/28 05:03:09;;;;;;;;;;;19.00;38.30;;;;;;5092637;28;19912;-64
2022/01/28 05:06:09;;;;;;;;;;;19.00;38.30;;;;;;5093357;28;19931;-64
2022/01/28 05:11:35;;;;;;;;;;;19.00;38.30;;;;;;5093298;28;20374;-64
2022/01/28 05:27:28;;;;;;;;;;;19.00;38.20;;;;;;5092658;28;19916;-64
2022/01/28 05:29:53;;;;;;;;;;;19.10;38.10;;;;;;5092945;28;20007;-63
2022/01/28 05:32:19;;;;;;;;;;;19.10;38.10;;;;;;5093076;28;20003;-64
2022/01/28 05:34:44;;;;;;;;;;;19.10;38.10;;;;;;5092912;28;20006;-64
2022/01/28 05:37:10;;;;;;;;;;;19.10;38.10;;;;;;5092985;28;19908;-64
2022/01/28 05:39:35;;;;;;;;;;;19.20;38.00;;;;;;5095753;28;19908;-64
2022/01/28 05:42:01;;;;;;;;;;;19.20;38.00;;;;;;5096662;28;20310;-64
2022/01/28 05:44:27;;;;;;;;;;;19.20;38.00;;;;;;5096598;28;19935;-64
2022/01/28 05:46:56;;;;;;;;;;;19.20;38.00;;;;;;5078345;28;20372;-65
2022/01/28 05:49:22;;;;;;;;;;;19.20;38.00;;;;;;5078302;28;19908;-65
2022/01/28 05:51:47;;;;;;;;;;;19.20;38.00;;;;;;5096400;28;19915;-65
2022/01/28 05:54:13;;;;;;;;;;;19.30;38.00;;;;;;5096331;28;19931;-64
2022/01/28 05:56:38;;;;;;;;;;;19.20;37.90;;;;;;5096532;28;20360;-64
2022/01/28 05:59:04;;;;;;;;;;;19.30;37.90;;;;;;5096117;28;20387;-64
2022/01/28 06:01:29;;;;;;;;;;;19.30;37.90;;;;;;5096215;28;19916;-64
2022/01/28 06:03:55;;;;;;;;;;;19.30;37.80;;;;;;5096164;28;20382;-64
2022/01/28 06:06:23;;;;;;;;;;;19.30;37.80;;;;;;5096059;28;20556;-64
2022/01/28 06:08:49;;;;;;;;;;;19.30;37.80;;;;;;5096002;28;19912;-64
2022/01/28 06:11:14;;;;;;;;;;;19.40;37.70;;;;;;5096082;28;19916;-64
2022/01/28 06:13:40;;;;;;;;;;;19.40;37.80;;;;;;5095997;28;19912;-64
2022/01/28 06:16:05;;;;;;;;;;;19.40;37.80;;;;;;5095880;28;19912;-64
2022/01/28 06:18:31;;;;;;;;;;;19.40;37.80;;;;;;5077785;28;19949;-64
2022/01/28 06:20:56;;;;;;;;;;;19.40;37.70;;;;;;5095735;28;19908;-64
2022/01/28 06:23:22;;;;;;;;;;;19.40;37.70;;;;;;5095994;28;19926;-64
2022/01/28 06:25:48;;;;;;;;;;;19.40;37.70;;;;;;5095967;28;19952;-64
2022/01/28 06:28:14;;;;;;;;;;;19.40;37.70;;;;;;5095783;28;20325;-63
2022/01/28 06:30:40;;;;;;;;;;;19.50;37.70;;;;;;5077350;28;19908;-64
2022/01/28 06:33:05;;;;;;;;;;;19.50;37.80;;;;;;5095539;28;19910;-64
2022/01/28 06:35:30;;;;;;;;;;;19.50;37.70;;;;;;5095527;28;19955;-64
2022/01/28 06:37:56;;;;;;;;;;;19.50;37.70;;;;;;5095453;28;19908;-64
2022/01/28 06:40:21;;;;;;;;;;;19.50;37.80;;;;;;5095455;28;19908;-63
2022/01/28 06:42:47;;;;;;;;;;;19.50;37.80;;;;;;5095457;28;19908;-63
2022/01/28 06:45:12;;;;;;;;;;;19.50;37.80;;;;;;5095261;28;19919;-62
2022/01/28 06:47:38;;;;;;;;;;;19.50;37.80;;;;;;5077002;28;20382;-62
2022/01/28 06:50:07;;;;;;;;;;;19.50;37.70;;;;;;5094179;28;19909;-62
2022/01/28 06:52:33;;;;;;;;;;;19.50;37.70;;;;;;5094914;28;19919;-62
2022/01/28 06:55:01;;;;;;;;;;;19.50;37.70;;;;;;5095268;28;19914;-62
2022/01/28 06:57:27;;;;;;;;;;;19.50;37.70;;;;;;5095059;28;19912;-63
2022/01/28 06:59:53;;;;;;;;;;;19.50;37.70;;;;;;5094799;28;20353;-62
2022/01/28 07:02:18;;;;;;;;;;;19.50;37.70;;;;;;5095002;28;19908;-63
2022/01/28 07:04:44;;;;;;;;;;;19.50;37.80;;;;;;5094923;28;20367;-63
2022/01/28 07:07:09;;;;;;;;;;;19.50;37.80;;;;;;5094750;28;20394;-62
2022/01/28 07:09:35;;;;;;;;;;;19.50;37.70;;;;;;5094849;28;19912;-63
2022/01/28 07:12:01;;;;;;;;;;;19.60;37.80;;;;;;5094626;28;19912;-62
2022/01/28 07:14:27;;;;;;;;;;;19.50;37.70;;;;;;5094712;28;19908;-62
2022/01/28 07:16:52;;;;;;;;;;;19.50;37.70;;;;;;5094576;28;19921;-63
2022/01/28 07:19:17;;;;;;;;;;;19.50;37.70;;;;;;5076435;28;19950;-62
2022/01/28 07:21:43;;;;;;;;;;;19.50;37.70;;;;;;5094475;28;20320;-62
2022/01/28 07:24:08;;;;;;;;;;;19.50;37.80;;;;;;5094673;28;19969;-63
2022/01/28 07:26:34;;;;;;;;;;;19.60;37.70;;;;;;5094443;28;20421;-62
2022/01/28 07:28:59;;;;;;;;;;;19.60;37.70;;;;;;5094180;28;20379;-63
2022/01/28 07:31:25;;;;;;;;;;;19.60;37.70;;;;;;5094183;28;20355;-62
2022/01/28 07:33:50;;;;;;;;;;;19.60;37.70;;;;;;5094365;28;19908;-63
2022/01/28 07:36:15;;;;;;;;;;;19.60;37.70;;;;;;5094221;28;19908;-63
2022/01/28 07:38:41;;;;;;;;;;;19.60;37.70;;;;;;5094330;28;19908;-64
2022/01/28 07:41:06;;;;;;;;;;;19.60;37.70;;;;;;5094039;28;19995;-63
2022/01/28 07:43:37;;;;;;;;;;;19.60;37.70;;;;;;5094079;28;19912;-63
2022/01/28 07:46:03;;;;;;;;;;;19.60;37.70;;;;;;5059904;28;19912;-63
2022/01/28 07:48:28;;;;;;;;;;;19.60;37.70;;;;;;5075812;28;19920;-63
2022/01/28 07:50:54;;;;;;;;;;;19.60;37.70;;;;;;5093891;28;19908;-64
2022/01/28 07:53:19;;;;;;;;;;;19.60;37.70;;;;;;5093776;28;19908;-64
2022/01/28 07:55:45;;;;;;;;;;;19.60;37.70;;;;;;5093976;28;19915;-64
2022/01/28 07:58:10;;;;;;;;;;;19.60;37.70;;;;;;5094066;28;19915;-64
2022/01/28 08:00:36;;;;;;;;;;;19.60;37.70;;;;;;5093555;28;19920;-65
2022/01/28 08:03:01;;;;;;;;;;;19.60;37.70;;;;;;5093590;28;19954;-64
2022/01/28 08:05:27;;;;;;;;;;;19.60;37.70;;;;;;5093649;28;19914;-63
2022/01/28 08:07:52;;;;;;;;;;;19.70;37.70;;;;;;5093738;28;19924;-64
2022/01/28 08:10:19;;;;;;;;;;;19.70;37.70;;;;;;5093660;28;19995;-63
2022/01/28 08:12:52;;;;;;;;;;;19.70;37.70;;;;;;5093650;28;19908;-64
2022/01/28 08:15:18;;;;;;;;;;;19.60;37.70;;;;;;5093638;28;19915;-64
2022/01/28 08:17:44;;;;;;;;;;;19.60;37.60;;;;;;5093473;28;19908;-64
2022/01/28 08:20:09;;;;;;;;;;;19.70;37.70;;;;;;5093370;28;19908;-64
2022/01/28 08:22:44;;;;;;;;;;;19.70;37.70;;;;;;5075424;28;20271;-64
2022/01/28 08:25:10;;;;;;;;;;;19.70;37.70;;;;;;5093671;28;19951;-63
2022/01/28 08:27:35;;;;;;;;;;;19.70;37.70;;;;;;5093389;28;19967;-63
2022/01/28 08:30:01;;;;;;;;;;;19.70;37.60;;;;;;5093484;28;19908;-65
2022/01/28 08:32:27;;;;;;;;;;;19.70;37.70;;;;;;5093367;28;19961;-63
2022/01/28 08:34:53;;;;;;;;;;;19.70;37.60;;;;;;5093353;28;20402;-64
2022/01/28 08:37:19;;;;;;;;;;;19.70;37.60;;;;;;5093318;28;19961;-64
2022/01/28 08:39:45;;;;;;;;;;;19.70;37.70;;;;;;5093452;28;20407;-63
2022/01/28 08:42:10;;;;;;;;;;;19.70;37.60;;;;;;5093260;28;19951;-65
2022/01/28 08:44:36;;;;;;;;;;;19.70;37.60;;;;;;5093392;28;19915;-64
2022/01/28 08:47:01;;;;;;;;;;;19.70;37.60;;;;;;5093074;28;20386;-64
2022/01/28 08:49:27;;;;;;;;;;;19.70;37.60;;;;;;5075192;28;20348;-65
2022/01/28 08:51:52;;;;;;;;;;;19.70;37.60;;;;;;5093464;28;20002;-64
2022/01/28 08:54:17;;;;;;;;;;;19.70;37.60;;;;;;5093551;28;19912;-64
2022/01/28 08:56:43;;;;;;;;;;;19.70;37.60;;;;;;5093244;28;19908;-64
2022/01/28 08:59:09;;;;;;;;;;;19.80;37.60;;;;;;5092833;28;19927;-64
2022/01/28 09:01:35;;;;;;;;;;;19.70;37.60;;;;;;5093143;28;19942;-63
2022/01/28 09:04:00;;;;;;;;;;;19.70;37.60;;;;;;5093106;28;19947;-64
2022/01/28 09:06:25;;;;;;;;;;;19.70;37.60;;;;;;5093038;28;19912;-64
2022/01/28 09:08:54;;;;;;;;;;;19.70;37.60;;;;;;5093005;28;19912;-67
2022/01/28 09:13:49;;;;;;;;;;;19.70;37.60;;;;;;5094291;28;19908;-64
2022/01/28 09:16:14;;;;;;;;;;;19.80;37.60;;;;;;5096980;28;20325;-64
2022/01/28 09:18:40;;;;;;;;;;;19.80;37.60;;;;;;5078740;28;19933;-64
2022/01/28 09:21:05;;;;;;;;;;;19.80;37.60;;;;;;5078591;28;19956;-65
2022/01/28 09:23:31;;;;;;;;;;;19.80;37.60;;;;;;5096854;28;19908;-63
2022/01/28 09:25:57;;;;;;;;;;;19.80;37.60;;;;;;5096738;28;19923;-64
2022/01/28 09:28:22;;;;;;;;;;;19.80;37.60;;;;;;5096561;28;20383;-64
2022/01/28 09:30:48;;;;;;;;;;;19.80;37.60;;;;;;5096517;28;19915;-64
2022/01/28 09:33:13;;;;;;;;;;;19.80;37.50;;;;;;5096726;28;19912;-64
2022/01/28 09:35:41;;;;;;;;;;;19.80;37.60;;;;;;5096598;28;20425;-63
2022/01/28 09:38:07;;;;;;;;;;;19.80;37.50;;;;;;5078300;28;19908;-63
2022/01/28 09:40:32;;;;;;;;;;;19.90;37.50;;;;;;5096360;28;19912;-64
2022/01/28 09:43:00;;;;;;;;;;;19.90;37.60;;;;;;5096323;28;20429;-64
2022/01/28 09:45:25;;;;;;;;;;;19.90;37.60;;;;;;5078048;28;20394;-63
2022/01/28 09:47:53;;;;;;;;;;;19.90;37.50;;;;;;5096485;28;19916;-64
2022/01/28 09:50:21;;;;;;;;;;;19.90;37.50;;;;;;5096264;28;20343;-62
2022/01/28 09:52:47;;;;;;;;;;;19.90;37.50;;;;;;5078195;28;20305;-63
2022/01/28 09:55:12;;;;;;;;;;;19.90;37.60;;;;;;5078000;28;19907;-64
2022/01/28 09:57:38;;;;;;;;;;;20.00;37.60;;;;;;5096208;28;19959;-64
2022/01/28 10:00:05;;;;;;;;;;;20.00;37.60;;;;;;5095821;28;19926;-63
2022/01/28 10:02:46;;;;;;;;;;;20.00;37.50;;;;;;5095989;28;19950;-64
2022/01/28 10:05:18;;;;;;;;;;;20.00;37.50;;;;;;5095843;28;19912;-64
2022/01/28 10:08:02;;;;;;;;;;;20.00;37.50;;;;;;5095971;28;20011;-64
2022/01/28 10:10:40;;;;;;;;;;;20.00;37.50;;;;;;5095767;28;20006;-64
2022/01/28 10:13:10;;;;;;;;;;;20.10;37.50;;;;;;5077821;28;20256;-66
2022/01/28 10:15:36;;;;;;;;;;;20.00;37.40;;;;;;5095985;28;20359;-63
2022/01/28 10:18:01;;;;;;;;;;;20.10;37.40;;;;;;5077775;28;19991;-64
2022/01/28 10:20:27;;;;;;;;;;;20.10;37.40;;;;;;5095949;28;19912;-64
2022/01/28 10:22:54;;;;;;;;;;;20.10;37.40;;;;;;5095632;28;20359;-63
2022/01/28 10:25:38;;;;;;;;;;;20.10;37.40;;;;;;5076368;28;19970;-63
2022/01/28 10:28:05;;;;;;;;;;;20.10;37.40;;;;;;5095503;28;19923;-64
2022/01/28 10:30:34;;;;;;;;;;;20.10;37.40;;;;;;5095735;28;19954;-64
2022/01/28 10:33:16;;;;;;;;;;;20.10;37.40;;;;;;5095685;28;19954;-64
2022/01/28 10:35:48;;;;;;;;;;;20.10;37.40;;;;;;5095509;28;20363;-63
2022/01/28 10:38:26;;;;;;;;;;;20.10;37.40;;;;;;5095247;28;20360;-63
2022/01/28 10:41:05;;;;;;;;;;;20.20;37.40;;;;;;5095304;28;19908;-64
2022/01/28 10:43:30;;;;;;;;;;;20.10;37.40;;;;;;5095329;28;19951;-65
2022/01/28 10:46:03;;;;;;;;;;;20.10;37.40;;;;;;5077058;28;19991;-64
2022/01/28 10:48:28;;;;;;;;;;;20.10;37.50;;;;;;5095210;28;19916;-64
2022/01/28 10:50:56;;;;;;;;;;;20.10;37.50;;;;;;5077187;28;20418;-64
2022/01/28 10:53:22;;;;;;;;;;;20.10;37.50;;;;;;5076943;28;19912;-64
2022/01/28 10:55:54;;;;;;;;;;;20.00;37.60;;;;;;5076866;28;19919;-64
2022/01/28 10:58:22;;;;;;;;;;;20.00;37.60;;;;;;5095105;28;19915;-63
2022/01/28 11:00:48;;;;;;;;;;;20.00;37.60;;;;;;5094839;28;19920;-64
2022/01/28 11:03:16;;;;;;;;;;;19.90;37.60;;;;;;5094791;28;20351;-63
2022/01/28 11:05:43;;;;;;;;;;;19.90;37.70;;;;;;5094878;28;19908;-64
2022/01/28 11:08:11;;;;;;;;;;;19.90;37.70;;;;;;5094623;28;20364;-64
2022/01/28 11:10:37;;;;;;;;;;;19.90;37.70;;;;;;5094988;28;19947;-64
2022/01/28 11:13:03;;;;;;;;;;;19.90;37.70;;;;;;5094604;28;19912;-64
2022/01/28 11:15:29;;;;;;;;;;;19.80;37.70;;;;;;5094684;28;19908;-64
2022/01/28 11:17:57;;;;;;;;;;;19.80;37.70;;;;;;5076445;28;20248;-64
2022/01/28 11:20:24;;;;;;;;;;;19.80;37.80;;;;;;5094566;28;20425;-63
2022/01/28 11:22:56;;;;;;;;;;;19.80;37.70;;;;;;5094627;28;19943;-64
2022/01/28 11:25:36;;;;;;;;;;;19.80;37.70;;;;;;5094420;28;19969;-64
2022/01/28 11:28:09;;;;;;;;;;;19.90;37.70;;;;;;5094873;28;19916;-64
2022/01/28 11:30:35;;;;;;;;;;;19.90;37.70;;;;;;5094652;28;19916;-64
2022/01/28 11:33:02;;;;;;;;;;;19.90;37.70;;;;;;5094408;28;19908;-64
2022/01/28 11:35:29;;;;;;;;;;;19.90;37.60;;;;;;5094512;28;20280;-63
2022/01/28 11:38:01;;;;;;;;;;;19.90;37.60;;;;;;5093785;28;20014;-64
2022/01/28 11:40:26;;;;;;;;;;;19.90;37.60;;;;;;5094416;28;19915;-63
2022/01/28 11:43:12;;;;;;;;;;;19.90;37.60;;;;;;5094170;28;19908;-64
2022/01/28 11:45:41;;;;;;;;;;;20.00;37.50;;;;;;5093814;28;19923;-63
2022/01/28 11:48:06;;;;;;;;;;;20.00;37.50;;;;;;5075705;28;19916;-64
2022/01/28 11:50:32;;;;;;;;;;;20.00;37.50;;;;;;5093577;28;19915;-64
2022/01/28 11:52:58;;;;;;;;;;;20.00;37.50;;;;;;5093943;28;20002;-64
2022/01/28 11:55:26;;;;;;;;;;;20.00;37.50;;;;;;5093814;28;19912;-63
2022/01/28 11:57:53;;;;;;;;;;;20.00;37.50;;;;;;5093770;28;19908;-64
2022/01/28 12:00:24;;;;;;;;;;;20.00;37.50;;;;;;5093604;28;20287;-64
2022/01/28 12:02:51;;;;;;;;;;;20.00;37.50;;;;;;5093569;28;19915;-63
2022/01/28 12:05:43;;;;;;;;;;;19.90;37.50;;;;;;5093702;28;19908;-64
2022/01/28 12:08:09;;;;;;;;;;;20.00;37.50;;;;;;5089375;28;20423;-63
2022/01/28 12:10:41;;;;;;;;;;;19.90;37.50;;;;;;5093516;28;19914;-63
2022/01/28 12:13:12;;;;;;;;;;;20.00;37.50;;;;;;5093838;28;19908;-64
2022/01/28 12:16:02;;;;;;;;;;;19.90;37.50;;;;;;5093544;28;19973;-64
2022/01/28 12:18:46;;;;;;;;;;;19.90;37.40;;;;;;5093659;28;19992;-63
2022/01/28 12:21:13;;;;;;;;;;;20.00;37.40;;;;;;5093535;28;19916;-65
2022/01/28 12:23:38;;;;;;;;;;;20.00;37.40;;;;;;5093292;28;20271;-63
2022/01/28 12:26:04;;;;;;;;;;;20.00;37.40;;;;;;5093778;28;19915;-63
2022/01/28 12:28:32;;;;;;;;;;;19.90;37.40;;;;;;5093674;28;19917;-64
2022/01/28 12:31:00;;;;;;;;;;;20.00;37.40;;;;;;5093252;28;20438;-64
2022/01/28 12:33:28;;;;;;;;;;;19.90;37.40;;;;;;5093635;28;20276;-64
2022/01/28 12:35:56;;;;;;;;;;;20.00;37.40;;;;;;5093328;28;19955;-64
2022/01/28 12:38:24;;;;;;;;;;;20.00;37.30;;;;;;5093195;28;19931;-63
2022/01/28 12:40:52;;;;;;;;;;;20.00;37.30;;;;;;5093316;28;20394;-64
2022/01/28 12:43:23;;;;;;;;;;;20.00;37.30;;;;;;5093520;28;20144;-64
2022/01/28 12:45:56;;;;;;;;;;;20.00;37.30;;;;;;5093135;28;20442;-64
2022/01/28 12:48:21;;;;;;;;;;;20.00;37.30;;;;;;5093852;28;19916;-64
2022/01/28 12:50:50;;;;;;;;;;;20.00;37.30;;;;;;5098013;28;19915;-63
2022/01/28 12:53:35;;;;;;;;;;;20.00;37.30;;;;;;5097289;28;19942;-63
2022/01/28 12:56:01;;;;;;;;;;;20.00;37.30;;;;;;5097174;28;19915;-63
2022/01/28 12:58:34;;;;;;;;;;;20.00;37.30;;;;;;5097141;28;19912;-64
2022/01/28 13:01:09;;;;;;;;;;;20.00;37.30;;;;;;5097117;28;20011;-64
2022/01/28 13:03:54;;;;;;;;;;;20.00;37.30;;;;;;5078708;28;19908;-64
2022/01/28 13:06:39;;;;;;;;;;;20.00;37.30;;;;;;5097054;28;20286;-65
2022/01/28 13:09:24;;;;;;;;;;;20.00;37.30;;;;;;5097277;28;20007;-63
2022/01/28 13:11:54;;;;;;;;;;;20.00;37.20;;;;;;5096354;28;19946;-64
2022/01/28 13:14:30;;;;;;;;;;;20.00;37.20;;;;;;5096968;28;20429;-64
2022/01/28 13:16:56;;;;;;;;;;;20.00;37.20;;;;;;5096857;28;20383;-65
2022/01/28 13:19:22;;;;;;;;;;;20.00;37.20;;;;;;5096790;28;19915;-65
2022/01/28 13:21:48;;;;;;;;;;;20.00;37.20;;;;;;5096764;28;19996;-63
2022/01/28 13:24:15;;;;;;;;;;;20.00;37.20;;;;;;5096711;28;19935;-64
2022/01/28 13:26:57;;;;;;;;;;;20.00;37.20;;;;;;5096494;28;19959;-65
2022/01/28 13:29:53;;;;;;;;;;;20.00;37.20;;;;;;5096642;28;19912;-64
2022/01/28 13:32:23;;;;;;;;;;;20.00;37.20;;;;;;5079654;28;20091;-64
2022/01/28 13:34:51;;;;;;;;;;;20.00;37.20;;;;;;5096964;28;20342;-64
2022/01/28 13:37:38;;;;;;;;;;;20.00;37.20;;;;;;5096436;28;19943;-64
2022/01/28 13:40:05;;;;;;;;;;;20.00;37.20;;;;;;5096612;28;20287;-63
2022/01/28 13:42:31;;;;;;;;;;;20.00;37.20;;;;;;5078143;28;19908;-63
2022/01/28 13:45:02;;;;;;;;;;;20.00;37.20;;;;;;5078020;28;19908;-63
2022/01/28 13:47:46;;;;;;;;;;;20.00;37.20;;;;;;5096390;28;20277;-62
2022/01/28 13:50:11;;;;;;;;;;;20.00;37.10;;;;;;5096547;28;19908;-62
2022/01/28 13:52:46;;;;;;;;;;;20.00;37.20;;;;;;5096112;28;20405;-62
2022/01/28 13:55:30;;;;;;;;;;;20.00;37.10;;;;;;5096152;28;19931;-63
2022/01/28 13:58:05;;;;;;;;;;;20.00;37.10;;;;;;5095953;28;19999;-63
2022/01/28 14:00:38;;;;;;;;;;;20.00;37.20;;;;;;5095431;28;19958;-63
2022/01/28 14:03:03;;;;;;;;;;;20.00;37.20;;;;;;5095929;28;19912;-62
2022/01/28 14:05:47;;;;;;;;;;;20.00;37.20;;;;;;5077704;28;19957;-62
2022/01/28 14:08:13;;;;;;;;;;;20.00;37.20;;;;;;5095831;28;20015;-63
2022/01/28 14:10:38;;;;;;;;;;;20.00;37.10;;;;;;5095710;28;20003;-63
2022/01/28 14:13:20;;;;;;;;;;;20.00;37.20;;;;;;5095904;28;19915;-62
2022/01/28 14:16:00;;;;;;;;;;;20.00;37.10;;;;;;5095927;28;19951;-63
2022/01/28 14:18:26;;;;;;;;;;;20.00;37.10;;;;;;5095700;28;19908;-63
2022/01/28 14:20:51;;;;;;;;;;;20.00;37.20;;;;;;5095757;28;19915;-64
2022/01/28 14:23:16;;;;;;;;;;;20.00;37.20;;;;;;5095875;28;19915;-62
2022/01/28 14:25:42;;;;;;;;;;;20.00;37.20;;;;;;5095786;28;19915;-63
2022/01/28 14:30:54;;;;;;;;;;;20.00;37.20;;;;;;5095611;28;19908;-63
2022/01/28 14:33:20;;;;;;;;;;;20.00;37.20;;;;;;5095849;28;19951;-63
2022/01/28 14:35:45;;;;;;;;;;;20.00;37.20;;;;;;5095453;28;20022;-64
2022/01/28 14:38:11;;;;;;;;;;;20.00;37.10;;;;;;5094952;28;19908;-62
2022/01/28 14:40:37;;;;;;;;;;;20.00;37.20;;;;;;5095070;28;19991;-62
2022/01/28 14:43:02;;;;;;;;;;;19.90;37.20;;;;;;5095176;28;19958;-63
2022/01/28 14:45:29;;;;;;;;;;;19.90;37.20;;;;;;5077038;28;19908;-63
2022/01/28 14:47:54;;;;;;;;;;;19.90;37.20;;;;;;5095271;28;19968;-63
2022/01/28 14:50:20;;;;;;;;;;;19.90;37.20;;;;;;5095321;28;20341;-63
2022/01/28 14:52:45;;;;;;;;;;;19.90;37.20;;;;;;5094988;28;19908;-63
2022/01/28 14:55:11;;;;;;;;;;;19.90;37.20;;;;;;5094940;28;19915;-64
2022/01/28 14:57:36;;;;;;;;;;;19.90;37.20;;;;;;5094981;28;20367;-64
2022/01/28 15:00:03;;;;;;;;;;;19.90;37.20;;;;;;5094680;28;20029;-63
2022/01/28 15:02:30;;;;;;;;;;;20.00;37.20;;;;;;5094806;28;19908;-63
2022/01/28 15:04:57;;;;;;;;;;;19.90;37.20;;;;;;5094732;28;19950;-63
2022/01/28 15:07:26;;;;;;;;;;;19.90;37.20;;;;;;5076541;28;19916;-64
2022/01/28 15:09:54;;;;;;;;;;;19.90;37.20;;;;;;5094950;28;19947;-63
2022/01/28 15:12:19;;;;;;;;;;;19.90;37.10;;;;;;5093983;28;20295;-64
2022/01/28 15:14:45;;;;;;;;;;;19.90;37.10;;;;;;5094832;28;19908;-64
2022/01/28 15:17:10;;;;;;;;;;;19.90;37.10;;;;;;5094582;28;20375;-64
2022/01/28 15:19:36;;;;;;;;;;;19.90;37.10;;;;;;5076252;28;19915;-64
2022/01/28 15:22:01;;;;;;;;;;;19.90;37.10;;;;;;5094501;28;19947;-64
2022/01/28 15:24:27;;;;;;;;;;;19.90;37.00;;;;;;5094424;28;19908;-64
2022/01/28 15:26:54;;;;;;;;;;;19.90;37.10;;;;;;5093998;28;19931;-64
2022/01/28 15:34:55;;;;;;;;;;;19.90;37.10;;;;;;5094669;28;19914;-64
2022/01/28 15:37:20;;;;;;;;;;;20.00;37.20;;;;;;5094247;28;19931;-64